Time;durP1;ratioP1;P1;durP2;ratioP2;P2;SDS_P1;SDS_P2;PMS_P1;PMS_P2;Temp;Humidity;BMP_temperature;BMP_pressure;BME280_temperature;BME280_humidity;BME280_pressure;Samples;Min_cycle;Max_cycle;Signal;HPM_P1;HPM_P2
2021/06/17 00:03:30;;;;;;;4.83;3.17;;;;;;;15.18;100.00;94986.72;10527244;28;20711;-73
2021/06/17 00:08:32;;;;;;;3.80;3.30;;;;;;;15.21;100.00;94979.91;10527138;28;20455;-72
2021/06/17 00:13:36;;;;;;;5.75;4.40;;;;;;;15.34;100.00;94979.13;10526044;28;20027;-73
2021/06/17 00:18:38;;;;;;;6.60;4.30;;;;;;;15.42;100.00;94972.25;10526235;28;20016;-73
2021/06/17 00:23:38;;;;;;;7.43;4.53;;;;;;;15.55;100.00;94976.06;10526888;28;20555;-73
2021/06/17 00:28:38;;;;;;;3.40;2.73;;;;;;;15.54;100.00;94967.16;10525792;28;20024;-73
2021/06/17 00:33:39;;;;;;;6.73;2.23;;;;;;;15.55;100.00;94952.50;10526023;28;20063;-73
2021/06/17 00:38:39;;;;;;;6.18;3.83;;;;;;;15.54;100.00;94950.06;10527230;28;20027;-73
2021/06/17 00:43:40;;;;;;;6.07;3.83;;;;;;;15.53;100.00;94952.00;10526608;28;20055;-73
2021/06/17 00:48:40;;;;;;;5.43;4.23;;;;;;;15.40;100.00;94951.97;10525190;28;20043;-73
2021/06/17 00:53:42;;;;;;;5.77;4.20;;;;;;;15.30;100.00;94950.25;10525191;28;20268;-73
2021/06/17 00:58:43;;;;;;;5.72;4.05;;;;;;;15.17;100.00;94949.91;10525530;28;20028;-73
2021/06/17 01:03:43;;;;;;;12.55;4.65;;;;;;;14.88;100.00;94954.75;10534724;28;20237;-73
2021/06/17 01:09:07;;;;;;;11.00;5.87;;;;;;;14.73;100.00;94950.38;10529610;28;20020;-73
2021/06/17 01:14:36;;;;;;;7.70;5.43;;;;;;;14.70;100.00;94955.25;10524574;28;20818;-73
2021/06/17 01:20:01;;;;;;;9.93;5.85;;;;;;;14.72;100.00;94949.56;10522633;28;20051;-73
2021/06/17 01:25:10;;;;;;;17.60;5.93;;;;;;;14.70;100.00;94957.16;10524319;28;20028;-73
2021/06/17 01:30:11;;;;;;;;;;;;;;;14.75;100.00;94954.38;10525332;28;20047;-72
2021/06/17 01:35:14;;;;;;;8.38;4.75;;;;;;;14.76;100.00;94947.06;10523662;28;19920;-73
2021/06/17 01:40:15;;;;;;;8.27;5.78;;;;;;;14.54;100.00;94943.03;10522920;28;20109;-73
2021/06/17 01:45:17;;;;;;;9.15;7.13;;;;;;;14.39;100.00;94944.06;10521259;28;20028;-73
2021/06/17 01:50:20;;;;;;;8.20;6.45;;;;;;;14.37;100.00;94951.63;10527679;28;20028;-73
2021/06/17 01:55:22;;;;;;;11.73;7.50;;;;;;;14.55;100.00;94949.25;10531469;28;20020;-72
2021/06/17 02:00:23;;;;;;;16.90;7.35;;;;;;;14.51;100.00;94955.25;10531850;28;20032;-73
2021/06/17 02:05:24;;;;;;;11.77;8.10;;;;;;;14.50;100.00;94958.25;10532763;28;20035;-73
2021/06/17 02:10:27;;;;;;;12.05;7.90;;;;;;;14.57;100.00;94955.97;10532077;28;20035;-73
2021/06/17 02:15:29;;;;;;;12.25;7.22;;;;;;;14.45;100.00;94952.91;10531538;28;20035;-73
2021/06/17 02:20:30;;;;;;;12.55;8.80;;;;;;;14.40;100.00;94948.38;10530162;28;20048;-73
2021/06/17 02:25:33;;;;;;;15.50;8.35;;;;;;;14.46;100.00;94957.22;10531927;28;20027;-73
2021/06/17 02:30:35;;;;;;;13.30;8.20;;;;;;;14.41;100.00;94955.38;10531319;28;20032;-73
2021/06/17 02:35:38;;;;;;;26.40;10.13;;;;;;;14.36;100.00;94952.75;10531411;28;20052;-73
2021/06/17 02:40:45;;;;;;;12.10;8.88;;;;;;;14.30;100.00;94962.00;10529669;28;20092;-73
2021/06/17 02:45:49;;;;;;;11.75;8.35;;;;;;;14.24;100.00;94957.78;10531151;28;20092;-73
2021/06/17 02:50:50;;;;;;;13.77;8.35;;;;;;;14.22;100.00;94954.56;10530351;28;20058;-72
2021/06/17 02:55:51;;;;;;;17.33;8.75;;;;;;;14.22;100.00;94954.56;10530338;28;20034;-73
2021/06/17 03:01:28;;;;;;;13.05;8.00;;;;;;;14.22;100.00;94954.56;10529181;28;20031;-73
2021/06/17 03:06:38;;;;;;;11.25;7.00;;;;;;;14.29;100.00;94957.69;10505270;28;20039;-73
2021/06/17 03:11:43;;;;;;;14.95;7.95;;;;;;;14.31;100.00;94959.03;10529620;28;20478;-73
2021/06/17 03:16:49;;;;;;;16.73;8.85;;;;;;;14.44;100.00;94957.50;10529633;28;20135;-73
2021/06/17 03:21:53;;;;;;;15.15;8.90;;;;;;;14.43;100.00;94961.31;10529682;28;20062;-73
2021/06/17 03:26:56;;;;;;;17.33;9.77;;;;;;;14.41;100.00;94968.88;10529201;28;20020;-73
2021/06/17 03:31:57;;;;;;;19.70;8.73;;;;;;;14.55;100.00;94979.78;10529040;28;20052;-73
2021/06/17 03:37:00;;;;;;;15.43;9.20;;;;;;;14.65;100.00;94970.75;10528967;28;20023;-73
2021/06/17 03:42:01;;;;;;;12.40;8.70;;;;;;;14.75;100.00;94977.91;10528227;28;20055;-73
2021/06/17 03:47:03;;;;;;;14.85;8.30;;;;;;;14.85;100.00;94988.59;10528866;28;20032;-73
2021/06/17 03:52:05;;;;;;;14.10;7.65;;;;;;;14.81;100.00;94977.53;10528062;28;20020;-73
2021/06/17 03:57:06;;;;;;;11.73;6.85;;;;;;;14.83;100.00;94978.06;10527899;28;20067;-73
2021/06/17 04:02:07;;;;;;;10.98;8.13;;;;;;;14.99;100.00;94980.53;10528053;28;20027;-74
2021/06/17 04:07:13;;;;;;;13.70;7.45;;;;;;;15.12;100.00;94978.97;10526353;28;20114;-73
2021/06/17 04:12:17;;;;;;;9.63;6.03;;;;;;;15.21;100.00;94977.22;10527068;28;20031;-73
2021/06/17 04:17:21;;;;;;;15.65;6.78;;;;;;;15.53;100.00;94975.56;10526085;28;20467;-73
2021/06/17 04:22:23;;;;;;;10.23;5.45;;;;;;;15.69;100.00;94963.34;10526008;28;20020;-73
2021/06/17 04:27:25;;;;;;;10.90;4.50;;;;;;;16.18;100.00;94958.34;10526638;28;20035;-73
2021/06/17 04:32:27;;;;;;;8.10;4.45;;;;;;;16.68;100.00;94962.19;10525653;28;20048;-73
2021/06/17 04:37:28;;;;;;;8.27;3.63;;;;;;;17.10;100.00;94959.34;10526362;28;20059;-73
2021/06/17 04:42:29;;;;;;;7.40;3.70;;;;;;;17.60;100.00;94951.00;10525096;28;20027;-73
2021/06/17 04:47:30;;;;;;;6.45;4.60;;;;;;;18.10;100.00;94953.47;10525714;28;20028;-73
2021/06/17 04:52:36;;;;;;;5.32;2.85;;;;;;;18.57;100.00;94944.75;10524910;28;20907;-73
2021/06/17 04:57:37;;;;;;;8.10;3.83;;;;;;;19.04;100.00;94951.50;10523858;28;20030;-73
2021/06/17 05:02:37;;;;;;;7.33;4.53;;;;;;;19.63;100.00;94954.44;10525279;28;20042;-73
2021/06/17 05:12:38;;;;;;;11.20;5.00;;;;;;;20.94;100.00;94961.16;10524322;28;20437;-74
2021/06/17 05:17:38;;;;;;;9.27;5.68;;;;;;;21.66;100.00;94969.22;10524787;28;20069;-73
2021/06/17 05:22:42;;;;;;;15.63;5.95;;;;;;;21.89;100.00;94968.78;10523417;28;20028;-73
2021/06/17 05:27:42;;;;;;;7.95;4.47;;;;;;;22.33;100.00;94969.09;10524678;28;20024;-73
2021/06/17 05:32:43;;;;;;;7.50;4.03;;;;;;;22.89;100.00;94975.88;10524160;28;20040;-74
2021/06/17 05:37:43;;;;;;;6.57;4.50;;;;;;;23.25;100.00;94982.41;10523804;28;20270;-73
2021/06/17 05:42:44;;;;;;;9.40;4.60;;;;;;;23.60;100.00;94992.78;10521907;28;20294;-73
2021/06/17 05:47:44;;;;;;;13.07;4.53;;;;;;;24.16;100.00;94983.66;10523313;28;20024;-73
2021/06/17 05:52:45;;;;;;;7.33;4.30;;;;;;;24.73;100.00;94992.50;10522790;28;20020;-73
2021/06/17 05:57:45;;;;;;;5.78;3.47;;;;;;;24.60;100.00;94995.69;10523718;28;20278;-73
2021/06/17 06:02:46;;;;;;;9.82;4.90;;;;;;;24.03;100.00;94993.94;10523847;28;20372;-73
2021/06/17 06:07:46;;;;;;;5.63;3.87;;;;;;;23.21;100.00;95000.72;10523718;28;20115;-73
2021/06/17 06:12:46;;;;;;;10.07;4.33;;;;;;;24.03;100.00;94996.69;10523426;28;20020;-73
2021/06/17 06:17:47;;;;;;;6.77;3.87;;;;;;;24.91;100.00;94997.63;10523611;28;20645;-73
2021/06/17 06:22:47;;;;;;;7.80;4.87;;;;;;;25.58;100.00;94985.66;10522443;28;20039;-73
2021/06/17 06:27:47;;;;;;;14.77;5.27;;;;;;;26.65;88.39;94983.16;10520777;28;20028;-73
2021/06/17 06:32:48;;;;;;;16.53;6.00;;;;;;;27.18;83.81;94987.88;10522845;28;20091;-75
2021/06/17 06:37:49;;;;;;;12.33;4.70;;;;;;;28.20;70.59;94979.59;10528972;28;20471;-74
2021/06/17 06:42:51;;;;;;;12.50;5.20;;;;;;;28.65;71.18;94990.63;10529702;28;20084;-74
2021/06/17 06:47:52;;;;;;;12.27;5.57;;;;;;;29.06;63.48;94978.63;10531895;28;20386;-74
2021/06/17 06:52:53;;;;;;;16.02;5.60;;;;;;;29.76;65.94;94979.34;10531871;28;20028;-74
2021/06/17 06:57:55;;;;;;;13.38;4.47;;;;;;;30.78;56.07;94986.59;10532784;28;20028;-74
2021/06/17 07:02:55;;;;;;;20.30;5.70;;;;;;;30.76;56.11;94988.22;10531513;28;20090;-74
2021/06/17 07:07:55;;;;;;;16.03;5.57;;;;;;;31.61;52.83;94992.00;10531491;28;20035;-74
2021/06/17 07:12:56;;;;;;;15.17;4.77;;;;;;;32.51;50.26;94983.13;10531832;28;20266;-74
2021/06/17 07:17:56;;;;;;;11.30;4.37;;;;;;;32.28;44.69;94985.69;10532286;28;20398;-74
2021/06/17 07:22:57;;;;;;;8.37;4.30;;;;;;;31.35;48.97;94987.69;10531400;28;20020;-74
2021/06/17 07:27:57;;;;;;;15.35;4.88;;;;;;;30.28;54.90;94986.59;10529388;28;20061;-75
2021/06/17 07:32:58;;;;;;;10.45;4.65;;;;;;;31.32;53.26;94985.72;10529584;28;20502;-75
2021/06/17 07:37:58;;;;;;;8.13;4.67;;;;;;;32.31;47.63;94980.09;10529342;28;20390;-75
2021/06/17 07:42:58;;;;;;;13.33;4.70;;;;;;;33.38;42.33;94985.13;10529027;28;20051;-75
2021/06/17 07:47:59;;;;;;;7.93;5.00;;;;;;;33.04;44.63;94977.47;10527327;28;20055;-74
2021/06/17 07:52:59;;;;;;;10.20;5.13;;;;;;;34.24;41.32;94966.44;10529356;28;20032;-74
2021/06/17 07:57:59;;;;;;;12.27;5.97;;;;;;;34.53;42.54;94964.03;10530654;28;20071;-74
2021/06/17 08:03:00;;;;;;;10.60;5.83;;;;;;;34.89;40.10;94965.44;10529646;28;20043;-74
2021/06/17 08:08:01;;;;;;;11.05;4.85;;;;;;;35.37;39.76;94968.97;10529981;28;20498;-74
2021/06/17 08:13:01;;;;;;;17.05;5.35;;;;;;;35.74;39.94;94967.78;10529886;28;20106;-74
2021/06/17 08:18:02;;;;;;;14.02;4.10;;;;;;;35.87;39.62;94962.34;10528933;28;20069;-74
2021/06/17 08:23:02;;;;;;;11.15;3.42;;;;;;;36.19;37.46;94955.25;10529360;28;20016;-74
2021/06/17 08:28:06;;;;;;;11.02;3.10;;;;;;;36.78;36.56;94947.03;10529132;28;20084;-74
2021/06/17 08:33:07;;;;;;;3.70;2.10;;;;;;;36.61;34.24;94947.03;10528716;28;20052;-75
2021/06/17 08:38:07;;;;;;;4.20;2.10;;;;;;;36.51;35.75;94936.13;10528742;28;20035;-74
2021/06/17 08:43:08;;;;;;;4.10;2.13;;;;;;;35.78;37.11;94936.16;10528835;28;20020;-74
2021/06/17 08:48:08;;;;;;;5.75;2.53;;;;;;;36.12;34.99;94944.22;10528547;28;20490;-74
2021/06/17 08:53:08;;;;;;;5.33;2.33;;;;;;;34.82;36.47;94935.66;10528054;28;20392;-75
2021/06/17 08:58:09;;;;;;;7.70;1.80;;;;;;;36.22;33.72;94929.16;10527724;28;20756;-75
2021/06/17 09:03:11;;;;;;;5.70;1.30;;;;;;;37.06;34.60;94922.31;10526675;28;20027;-75
2021/06/17 09:08:15;;;;;;;5.30;1.92;;;;;;;34.22;35.78;94927.03;10527482;28;20024;-75
2021/06/17 09:13:15;;;;;;;3.22;1.42;;;;;;;35.90;34.08;94919.53;10527455;28;20135;-75
2021/06/17 09:18:27;;;;;;;3.70;1.73;;;;;;;34.78;36.69;94906.97;10527262;28;20726;-75
2021/06/17 09:23:35;;;;;;;3.85;1.70;;;;;;;36.07;34.64;94899.97;10527036;28;20028;-74
2021/06/17 09:29:03;;;;;;;6.40;1.95;;;;;;;37.34;33.29;94889.91;10527399;28;20019;-75
2021/06/17 09:34:10;;;;;;;3.97;1.30;;;;;;;37.70;31.12;94888.84;10526161;28;20112;-74
2021/06/17 09:39:18;;;;;;;4.00;1.52;;;;;;;38.63;30.49;94890.72;10527068;28;20091;-74
2021/06/17 09:44:31;;;;;;;3.30;1.50;;;;;;;36.27;30.31;94892.28;10526726;28;20399;-75
2021/06/17 09:49:32;;;;;;;2.30;1.35;;;;;;;36.65;30.78;94884.59;10526342;28;20115;-75
2021/06/17 09:54:33;;;;;;;3.30;1.50;;;;;;;35.39;33.10;94879.88;10525091;28;20024;-74
2021/06/17 09:59:45;;;;;;;4.40;1.35;;;;;;;37.89;28.83;94875.09;10526363;28;20103;-74
2021/06/17 10:04:45;;;;;;;1.55;1.02;;;;;;;37.04;29.18;94863.16;10526264;28;20020;-74
2021/06/17 10:09:46;;;;;;;2.80;1.20;;;;;;;36.93;28.62;94864.22;10530206;28;20105;-78
2021/06/17 10:14:47;;;;;;;3.97;1.30;;;;;;;39.79;27.71;94862.06;10535528;28;20028;-76
2021/06/17 10:19:47;;;;;;;9.20;1.85;;;;;;;40.60;26.63;94849.97;10533179;28;20027;-73
2021/06/17 10:24:48;;;;;;;6.68;3.38;;;;;;;41.43;27.56;94851.19;10533796;28;20549;-73
2021/06/17 10:29:49;;;;;;;5.88;1.48;;;;;;;42.10;25.12;94854.09;10534001;28;20085;-76
2021/06/17 10:34:53;;;;;;;5.72;1.05;;;;;;;42.11;22.78;94847.22;10533148;28;20091;-73
2021/06/17 10:40:09;;;;;;;10.43;1.42;;;;;;;39.88;25.53;94833.16;10533728;28;20028;-75
2021/06/17 10:45:11;;;;;;;1.35;1.13;;;;;;;38.11;28.82;94828.25;10533455;28;20032;-75
2021/06/17 10:50:38;;;;;;;2.28;1.35;;;;;;;36.95;29.40;94821.75;10533781;28;20035;-75
2021/06/17 10:56:02;;;;;;;8.55;1.25;;;;;;;38.64;27.23;94810.03;10533023;28;20024;-75
2021/06/17 11:01:55;;;;;;;5.43;1.65;;;;;;;38.02;28.48;94816.94;10533628;28;20024;-77
2021/06/17 11:06:55;;;;;;;2.40;1.23;;;;;;;35.38;30.87;94808.47;10499716;28;20398;-74
2021/06/17 11:11:56;;;;;;;6.15;1.77;;;;;;;33.78;35.07;94807.00;10532340;28;20032;-76
2021/06/17 11:16:56;;;;;;;5.03;2.07;;;;;;;32.69;39.01;94806.88;10531129;28;20028;-75
2021/06/17 11:21:57;;;;;;;4.30;2.03;;;;;;;31.90;36.07;94805.63;10529054;28;20451;-74
2021/06/17 11:26:57;;;;;;;5.45;2.10;;;;;;;30.76;40.09;94819.75;10531758;28;20028;-75
2021/06/17 11:31:57;;;;;;;2.95;2.20;;;;;;;30.29;44.02;94810.72;10531334;28;20036;-74
2021/06/17 11:37:04;;;;;;;5.50;2.83;;;;;;;29.13;54.06;94802.34;10531455;28;20036;-74
2021/06/17 11:42:06;;;;;;;4.70;2.13;;;;;;;28.88;53.87;94804.25;10531501;28;20107;-76
2021/06/17 11:47:12;;;;;;;4.35;1.98;;;;;;;28.67;48.39;94793.91;10531284;28;20036;-76
2021/06/17 11:52:19;;;;;;;4.97;2.20;;;;;;;28.27;49.39;94802.75;10533254;28;20028;-76
2021/06/17 11:57:26;;;;;;;3.50;2.38;;;;;;;27.45;52.25;94803.69;10546424;28;20028;-76
2021/06/17 12:02:27;;;;;;;4.30;2.50;;;;;;;27.25;52.55;94807.81;10530415;28;20031;-76
2021/06/17 12:07:33;;;;;;;4.05;2.80;;;;;;;27.23;55.63;94807.41;10530586;28;20036;-76
2021/06/17 12:12:35;;;;;;;4.00;2.30;;;;;;;27.21;56.46;94793.19;10529865;28;20070;-76
2021/06/17 12:17:43;;;;;;;3.38;2.40;;;;;;;27.12;54.10;94794.28;10529774;28;20439;-74
2021/06/17 12:22:47;;;;;;;4.95;3.17;;;;;;;27.17;54.13;94789.59;10528703;28;20162;-75
2021/06/17 12:27:48;;;;;;;3.95;1.90;;;;;;;27.55;49.99;94782.88;10529770;28;20086;-76
2021/06/17 12:32:49;;;;;;;3.97;2.35;;;;;;;27.61;50.92;94784.09;10528643;28;20495;-76
2021/06/17 12:37:53;;;;;;;3.60;2.30;;;;;;;27.35;52.68;94784.25;10527436;28;20247;-76
2021/06/17 12:43:05;;;;;;;7.85;2.50;;;;;;;27.02;51.89;94780.41;10529394;28;20020;-76
2021/06/17 12:48:30;;;;;;;3.47;2.20;;;;;;;27.23;52.45;94782.56;10529072;28;20028;-76
2021/06/17 12:53:46;;;;;;;4.22;2.67;;;;;;;27.39;54.89;94788.69;10528662;28;20039;-76
2021/06/17 12:58:51;;;;;;;4.57;2.38;;;;;;;27.42;52.02;94778.81;10528772;28;20020;-76
2021/06/17 13:03:52;;;;;;;2.92;1.75;;;;;;;27.27;49.57;94788.91;10534514;28;20031;-76
2021/06/17 13:08:55;;;;;;;2.50;2.30;;;;;;;27.08;50.44;94782.41;10528107;28;20398;-76
2021/06/17 13:14:00;;;;;;;2.85;2.55;;;;;;;27.00;52.74;94780.78;10527928;28;20027;-76
2021/06/17 13:19:09;;;;;;;7.70;2.35;;;;;;;26.80;54.84;94779.38;10527445;28;20039;-76
2021/06/17 13:24:17;;;;;;;2.95;1.80;;;;;;;26.89;56.48;94779.84;10527269;28;20020;-76
2021/06/17 13:29:17;;;;;;;3.85;2.58;;;;;;;26.55;59.61;94774.31;10526458;28;20051;-74
2021/06/17 13:34:19;;;;;;;8.90;2.37;;;;;;;26.21;60.33;94785.31;10526970;28;20048;-74
2021/06/17 13:39:19;;;;;;;3.35;3.00;;;;;;;25.77;66.68;94797.59;10530240;28;20502;-74
2021/06/17 13:44:22;;;;;;;7.07;3.30;;;;;;;25.58;71.41;94791.03;10526097;28;20032;-74
2021/06/17 13:49:22;;;;;;;5.82;2.72;;;;;;;25.45;70.99;94794.34;10526910;28;20441;-74
2021/06/17 13:54:23;;;;;;;7.73;3.13;;;;;;;25.49;67.13;94808.97;10524935;28;20076;-74
2021/06/17 13:59:24;;;;;;;6.30;2.88;;;;;;;25.72;69.98;94798.72;10526889;28;20028;-74
2021/06/17 14:04:24;;;;;;;4.47;2.07;;;;;;;25.86;61.00;94800.91;10526461;28;20024;-74
2021/06/17 14:09:24;;;;;;;4.93;2.30;;;;;;;25.31;85.53;94800.38;10526232;28;20476;-74
2021/06/17 14:14:25;;;;;;;5.93;2.57;;;;;;;25.06;78.56;94797.94;10526175;28;20020;-74
2021/06/17 14:19:26;;;;;;;5.80;2.80;;;;;;;24.95;77.57;94791.47;10526191;28;20048;-74
2021/06/17 14:24:27;;;;;;;3.83;2.30;;;;;;;24.57;79.26;94780.94;10526179;28;20095;-74
2021/06/17 14:29:27;;;;;;;7.03;3.70;;;;;;;24.49;76.39;94770.13;10525336;28;20024;-74
2021/06/17 14:34:31;;;;;;;6.37;3.70;;;;;;;24.49;87.97;94776.44;10525305;28;20106;-74
2021/06/17 14:39:31;;;;;;;5.70;3.20;;;;;;;24.32;92.44;94774.09;10525556;28;20107;-74
2021/06/17 14:44:32;;;;;;;4.53;3.03;;;;;;;24.43;92.55;94783.38;10525320;28;20026;-75
2021/06/17 14:49:32;;;;;;;3.50;2.97;;;;;;;24.55;96.38;94796.19;10488230;28;20047;-75
2021/06/17 14:54:36;;;;;;;10.67;3.70;;;;;;;24.42;100.00;94805.69;10483059;28;20032;-75
2021/06/17 14:59:38;;;;;;;12.20;3.85;;;;;;;24.29;100.00;94816.81;10529604;28;20020;-75
2021/06/17 15:04:38;;;;;;;5.97;3.95;;;;;;;23.66;100.00;94829.47;10528207;28;20028;-75
2021/06/17 15:09:38;;;;;;;13.57;5.33;;;;;;;22.70;100.00;94847.69;10512247;28;20016;-77
2021/06/17 15:14:39;;;;;;;21.37;5.50;;;;;;;21.25;100.00;94877.94;10482694;28;20464;-76
2021/06/17 15:19:39;;;;;;;9.27;2.90;;;;;;;19.64;100.00;94868.78;10488848;28;20023;-76
2021/06/17 15:24:39;;;;;;;16.30;3.97;;;;;;;19.26;100.00;94863.34;10497686;28;20297;-76
2021/06/17 15:29:40;;;;;;;8.73;3.97;;;;;;;19.07;100.00;94855.53;10495640;28;20115;-76
2021/06/17 15:34:40;;;;;;;9.47;4.57;;;;;;;18.49;100.00;94858.47;10489524;28;20298;-77
2021/06/17 15:39:41;;;;;;;8.23;3.28;;;;;;;18.21;100.00;94863.38;10490364;28;20654;-76
2021/06/17 15:44:42;;;;;;;10.15;4.78;;;;;;;18.11;100.00;94864.50;10500312;28;20165;-75
2021/06/17 15:49:43;;;;;;;6.97;5.38;;;;;;;18.66;100.00;94892.25;10509163;28;20036;-76
2021/06/17 15:54:43;;;;;;;11.07;5.67;;;;;;;18.37;100.00;94882.78;10503642;28;20036;-77
2021/06/17 15:59:43;;;;;;;6.60;4.50;;;;;;;18.19;100.00;94863.72;10490549;28;20289;-78
2021/06/17 16:04:44;;;;;;;8.75;5.65;;;;;;;18.09;100.00;94885.78;10520497;28;20266;-72
2021/06/17 16:09:44;;;;;;;5.80;5.00;;;;;;;17.78;100.00;94883.91;10528917;28;20024;-72
2021/06/17 16:14:45;;;;;;;4.33;3.30;;;;;;;17.58;100.00;94872.50;10529245;28;20390;-74
2021/06/17 16:19:45;;;;;;;6.30;4.10;;;;;;;17.67;100.00;94869.03;10514476;28;20103;-73
2021/06/17 16:24:47;;;;;;;4.83;3.93;;;;;;;17.80;100.00;94878.16;10503119;28;20056;-73
2021/06/17 16:29:47;;;;;;;10.23;4.82;;;;;;;17.77;100.00;94898.63;10483528;28;20778;-72
2021/06/17 16:34:48;;;;;;;6.77;5.03;;;;;;;17.68;100.00;94919.53;10481994;28;20044;-72
2021/06/17 16:39:48;;;;;;;9.85;6.05;;;;;;;17.75;100.00;94931.56;10502859;28;20270;-72
2021/06/17 16:44:50;;;;;;;12.73;7.00;;;;;;;17.76;100.00;94937.78;10477600;28;20052;-72
2021/06/17 16:49:51;;;;;;;27.95;10.40;;;;;;;17.62;100.00;94954.19;10482585;28;20388;-72
2021/06/17 16:54:51;;;;;;;5.72;4.35;;;;;;;17.45;100.00;94948.69;10482804;28;20029;-71
2021/06/17 16:59:52;;;;;;;2.77;2.43;;;;;;;17.38;100.00;94928.19;10484430;28;20105;-72
2021/06/17 17:04:52;;;;;;;2.30;2.10;;;;;;;17.34;100.00;94937.28;10481877;28;20035;-72
2021/06/17 17:09:53;;;;;;;4.55;2.58;;;;;;;17.30;100.00;94941.72;10502175;28;20063;-72
2021/06/17 17:14:53;;;;;;;2.93;2.30;;;;;;;17.33;100.00;94965.53;10484080;28;20058;-72
2021/06/17 17:19:54;;;;;;;4.80;3.17;;;;;;;17.51;100.00;94980.03;10477165;28;20039;-72
2021/06/17 17:24:54;;;;;;;7.47;3.33;;;;;;;17.67;100.00;95004.91;10487714;28;20032;-72
2021/06/17 17:29:55;;;;;;;6.90;3.80;;;;;;;17.64;100.00;95003.63;10510786;28;20036;-72
2021/06/17 17:34:55;;;;;;;6.17;4.40;;;;;;;17.76;100.00;95019.34;10526294;28;20413;-72
2021/06/17 17:39:55;;;;;;;10.30;5.95;;;;;;;17.89;100.00;95034.78;10527326;28;20035;-72
2021/06/17 17:44:56;;;;;;;8.77;6.03;;;;;;;17.86;100.00;95038.13;10527076;28;20035;-71
2021/06/17 17:49:59;;;;;;;8.30;6.28;;;;;;;17.95;100.00;95056.44;10524800;28;20031;-72
2021/06/17 17:55:00;;;;;;;12.63;7.18;;;;;;;18.15;100.00;95069.47;10508851;28;20047;-72
2021/06/17 18:00:00;;;;;;;7.82;5.25;;;;;;;17.94;100.00;95047.44;10485135;28;20028;-72
2021/06/17 18:05:01;;;;;;;11.05;4.68;;;;;;;17.69;100.00;95051.59;10484325;28;20043;-72
2021/06/17 18:10:05;;;;;;;7.63;5.85;;;;;;;17.52;100.00;95057.72;10485016;28;20036;-72
2021/06/17 18:15:11;;;;;;;11.02;6.15;;;;;;;17.49;100.00;95061.06;10484484;28;20028;-72
2021/06/17 18:20:11;;;;;;;11.15;6.65;;;;;;;17.49;100.00;95055.63;10484392;28;20028;-72
2021/06/17 18:25:12;;;;;;;9.57;6.28;;;;;;;17.53;100.00;95037.59;10485352;28;20468;-72
2021/06/17 18:30:13;;;;;;;7.93;6.53;;;;;;;17.51;100.00;95034.38;10485448;28;20033;-72
2021/06/17 18:35:14;;;;;;;6.75;5.57;;;;;;;17.52;100.00;95025.13;10491606;28;20553;-73
2021/06/17 18:40:14;;;;;;;9.90;5.50;;;;;;;17.57;100.00;95020.38;10490704;28;20119;-72
2021/06/17 18:45:17;;;;;;;10.00;7.10;;;;;;;17.73;100.00;95025.41;10491598;28;20028;-73
2021/06/17 18:50:17;;;;;;;7.20;5.43;;;;;;;17.95;100.00;95051.00;10491199;28;20049;-73
2021/06/17 18:55:17;;;;;;;9.43;7.07;;;;;;;17.98;100.00;95053.09;10491690;28;20107;-72
2021/06/17 19:00:18;;;;;;;9.90;6.07;;;;;;;18.01;100.00;95052.44;10491016;28;20753;-73
2021/06/17 19:05:19;;;;;;;12.32;8.10;;;;;;;17.85;100.00;95058.25;10491468;28;20462;-72
2021/06/17 19:10:20;;;;;;;14.30;6.88;;;;;;;17.85;100.00;95071.84;10491465;28;20032;-73
2021/06/17 19:15:21;;;;;;;9.48;6.35;;;;;;;17.80;100.00;95071.19;10490290;28;20036;-72
2021/06/17 19:20:21;;;;;;;11.88;7.25;;;;;;;17.62;100.00;95081.94;10490210;28;20025;-73
2021/06/17 19:25:25;;;;;;;6.70;5.10;;;;;;;17.57;100.00;95085.59;10490410;28;20031;-72
2021/06/17 19:30:26;;;;;;;11.52;5.80;;;;;;;17.41;100.00;95089.78;10490243;28;20039;-73
2021/06/17 19:35:27;;;;;;;5.05;3.95;;;;;;;17.08;100.00;95090.78;10504917;28;20511;-73
2021/06/17 19:40:27;;;;;;;5.77;4.50;;;;;;;16.77;100.00;95092.53;10487829;28;20024;-73
2021/06/17 19:45:29;;;;;;;7.30;5.10;;;;;;;16.56;100.00;95103.78;10527980;28;20032;-74
2021/06/17 19:50:30;;;;;;;6.45;4.40;;;;;;;16.37;100.00;95103.91;10529352;28;20036;-75
2021/06/17 20:00:30;;;;;;;7.97;5.20;;;;;;;16.25;100.00;95106.31;10529098;28;20132;-75
2021/06/17 20:05:31;;;;;;;9.77;5.27;;;;;;;16.29;100.00;95099.19;10529264;28;20032;-75
2021/06/17 20:10:32;;;;;;;9.30;5.13;;;;;;;16.35;100.00;95106.09;10527808;28;20359;-73
2021/06/17 20:15:32;;;;;;;9.38;4.50;;;;;;;16.42;100.00;95097.56;10525941;28;20032;-73
2021/06/17 20:20:33;;;;;;;10.75;4.18;;;;;;;16.34;100.00;95090.91;10527207;28;20032;-74
2021/06/17 20:25:34;;;;;;;3.70;3.00;;;;;;;16.37;100.00;95071.34;10527765;28;20028;-74
2021/06/17 20:30:35;;;;;;;10.98;4.35;;;;;;;16.52;100.00;95062.91;10526984;28;20043;-74
2021/06/17 20:35:35;;;;;;;4.97;4.43;;;;;;;16.67;100.00;95059.06;10526599;28;20048;-73
2021/06/17 20:40:35;;;;;;;7.67;4.30;;;;;;;16.76;100.00;95064.59;10527161;28;20020;-74
2021/06/17 20:45:36;;;;;;;7.03;4.68;;;;;;;16.79;100.00;95058.56;10525360;28;20301;-73
2021/06/17 20:50:36;;;;;;;10.37;5.00;;;;;;;16.76;100.00;95053.72;10525055;28;20498;-73
2021/06/17 20:55:37;;;;;;;5.25;4.38;;;;;;;16.59;100.00;95048.94;10526514;28;20028;-73
2021/06/17 21:00:37;;;;;;;9.65;4.85;;;;;;;16.49;100.00;95044.50;10526554;28;20033;-73
2021/06/17 21:05:39;;;;;;;5.18;4.40;;;;;;;16.38;100.00;95043.94;10525571;28;20064;-73
2021/06/17 21:10:39;;;;;;;4.68;4.22;;;;;;;16.39;100.00;95044.72;10525732;28;20028;-73
2021/06/17 21:15:40;;;;;;;7.30;5.20;;;;;;;16.36;100.00;95037.97;10524747;28;20024;-74
2021/06/17 21:20:41;;;;;;;5.53;4.93;;;;;;;16.51;100.00;95047.72;10524668;28;20086;-73
2021/06/17 21:25:41;;;;;;;7.60;5.45;;;;;;;16.48;100.00;95047.53;10525340;28;20274;-73
2021/06/17 21:30:42;;;;;;;7.10;5.20;;;;;;;16.37;100.00;95036.09;10525289;28;20028;-73
2021/06/17 21:35:42;;;;;;;8.98;5.60;;;;;;;16.17;100.00;95034.56;10524883;28;20047;-74
2021/06/17 21:40:42;;;;;;;7.38;6.10;;;;;;;16.05;100.00;95035.09;10525113;28;20467;-74
2021/06/17 21:45:43;;;;;;;11.53;6.47;;;;;;;16.16;100.00;95036.50;10525575;28;20039;-74
2021/06/17 21:50:43;;;;;;;10.20;6.77;;;;;;;16.18;100.00;95038.91;10524597;28;20024;-73
2021/06/17 21:55:44;;;;;;;15.07;6.33;;;;;;;16.17;100.00;95038.09;10523409;28;20085;-74
2021/06/17 22:00:44;;;;;;;11.77;7.10;;;;;;;16.13;100.00;95033.56;10523186;28;20031;-73
2021/06/17 22:05:45;;;;;;;12.55;7.85;;;;;;;16.01;100.00;95023.22;10526943;28;20032;-74
2021/06/17 22:10:45;;;;;;;9.52;7.18;;;;;;;15.89;100.00;95029.97;10532841;28;20387;-73
2021/06/17 22:15:46;;;;;;;15.77;8.38;;;;;;;15.77;100.00;95021.47;10533043;28;20035;-74
2021/06/17 22:20:46;;;;;;;13.18;9.07;;;;;;;15.68;100.00;95020.53;10532582;28;20088;-73
2021/06/17 22:25:46;;;;;;;15.27;9.53;;;;;;;15.78;100.00;95017.66;10532166;28;20067;-73
2021/06/17 22:30:47;;;;;;;17.92;8.80;;;;;;;15.79;100.00;95023.88;10532601;28;20294;-73
2021/06/17 22:35:47;;;;;;;14.63;9.18;;;;;;;15.60;100.00;95018.50;10530879;28;20127;-73
2021/06/17 22:40:48;;;;;;;14.27;9.85;;;;;;;15.48;100.00;95019.78;10530564;28;20120;-73
2021/06/17 22:45:48;;;;;;;15.90;10.02;;;;;;;15.54;100.00;95021.34;10531928;28;20027;-73
2021/06/17 22:50:49;;;;;;;18.17;9.90;;;;;;;15.46;100.00;95023.91;10531827;28;20027;-73
2021/06/17 22:55:50;;;;;;;14.80;9.35;;;;;;;15.41;100.00;95037.53;10530767;28;20338;-73
2021/06/17 23:00:50;;;;;;;17.90;12.05;;;;;;;15.18;100.00;95030.03;10530506;28;20467;-73
2021/06/17 23:05:51;;;;;;;14.73;10.03;;;;;;;15.18;100.00;95031.94;10529723;28;20058;-75
2021/06/17 23:10:51;;;;;;;16.43;10.37;;;;;;;15.10;100.00;95029.88;10527835;28;20815;-73
2021/06/17 23:15:52;;;;;;;18.17;10.60;;;;;;;15.13;100.00;95035.53;10529109;28;20281;-73
2021/06/17 23:20:53;;;;;;;20.90;11.05;;;;;;;15.11;100.00;95032.31;10530579;28;20306;-73